createdAt,value
2022-09-16T00:02:02.427Z,89.44
2022-09-16T00:04:28.977Z,89.61
2022-09-16T00:06:55.440Z,89.01
2022-09-16T00:09:21.887Z,89.92
2022-09-16T00:11:48.345Z,89.56
2022-09-16T00:14:14.894Z,90.16
2022-09-16T00:16:41.891Z,90.78
2022-09-16T00:19:09.325Z,90.97
2022-09-16T00:21:36.651Z,90.83
2022-09-16T00:24:03.634Z,91.59
2022-09-16T00:26:30.257Z,91.84
2022-09-16T00:28:56.939Z,92.16
2022-09-16T00:31:23.387Z,92.20
2022-09-16T00:33:49.863Z,92.36
2022-09-16T00:36:19.982Z,92.22
2022-09-16T00:38:51.541Z,92.50
2022-09-16T00:41:20.804Z,92.29
2022-09-16T00:43:55.066Z,92.82
2022-09-16T00:46:34.333Z,92.43
2022-09-16T00:49:06.654Z,92.98
2022-09-16T00:51:33.904Z,93.00
2022-09-16T00:54:04.705Z,93.28
2022-09-16T00:56:37.292Z,92.88
2022-09-16T00:59:29.992Z,93.47
2022-09-16T01:02:00.302Z,93.28
2022-09-16T01:04:32.761Z,93.21
2022-09-16T01:06:59.879Z,92.50
2022-09-16T01:09:27.730Z,92.68
2022-09-16T01:11:54.225Z,92.42
2022-09-16T01:14:41.931Z,92.13
2022-09-16T01:17:31.199Z,91.44
2022-09-16T01:20:34.613Z,90.99
2022-09-16T01:23:25.725Z,91.48
2022-09-16T01:26:10.412Z,91.48
2022-09-16T01:29:14.393Z,90.95
2022-09-16T01:31:59.283Z,92.03
2022-09-16T01:34:32.079Z,92.00
2022-09-16T01:37:26.790Z,91.66
2022-09-16T01:40:05.782Z,91.54
2022-09-16T01:42:47.546Z,91.21
2022-09-16T01:45:37.922Z,92.22
2022-09-16T01:48:43.733Z,93.06
2022-09-16T01:51:17.457Z,92.99
2022-09-16T01:54:03.592Z,92.99
2022-09-16T01:56:32.833Z,92.58
2022-09-16T01:59:08.081Z,92.12
2022-09-16T02:01:42.124Z,92.33
2022-09-16T02:04:17.227Z,92.57
2022-09-16T02:06:46.398Z,92.60
2022-09-16T02:09:33.321Z,91.75
2022-09-16T02:12:06.015Z,91.75
2022-09-16T02:14:39.261Z,91.21
2022-09-16T02:17:10.592Z,91.51
2022-09-16T02:19:44.566Z,91.59
2022-09-16T02:22:15.017Z,91.36
2022-09-16T02:24:48.301Z,92.04
2022-09-16T02:27:21.613Z,92.27
2022-09-16T02:29:54.779Z,91.55
2022-09-16T02:32:27.545Z,92.02
2022-09-16T02:34:55.744Z,92.08
2022-09-16T02:37:30.889Z,92.35
2022-09-16T02:40:02.288Z,91.92
2022-09-16T02:42:30.137Z,91.63
2022-09-16T02:44:58.130Z,92.11
2022-09-16T02:47:58.528Z,91.99
2022-09-16T02:50:46.915Z,92.19
2022-09-16T02:53:40.515Z,92.16
2022-09-16T02:56:18.011Z,92.00
2022-09-16T02:58:44.590Z,92.36
2022-09-16T03:01:13.548Z,91.91
2022-09-16T03:03:40.793Z,93.04
2022-09-16T03:06:15.447Z,92.06
2022-09-16T03:08:42.370Z,92.04
2022-09-16T03:11:32.203Z,91.64
2022-09-16T03:14:17.432Z,92.44
2022-09-16T03:17:03.578Z,93.49
2022-09-16T03:20:23.705Z,93.54
2022-09-16T03:23:14.000Z,93.17
2022-09-16T03:25:49.589Z,94.29
2022-09-16T03:29:12.515Z,93.54
2022-09-16T03:31:55.330Z,93.94
2022-09-16T03:34:36.158Z,94.46
2022-09-16T03:37:08.124Z,94.37
2022-09-16T03:39:35.992Z,93.52
2022-09-16T03:42:04.794Z,92.63
2022-09-16T03:44:33.454Z,92.68
2022-09-16T03:47:00.097Z,92.76
2022-09-16T03:49:26.552Z,92.67
2022-09-16T03:51:53.823Z,92.66
2022-09-16T03:54:20.278Z,91.84
2022-09-16T03:56:46.867Z,91.87
2022-09-16T03:59:13.421Z,92.43
2022-09-16T04:01:40.051Z,92.13
2022-09-16T04:04:08.049Z,92.14
2022-09-16T04:06:34.509Z,92.03
2022-09-16T04:09:07.185Z,91.21
2022-09-16T04:11:35.440Z,90.42
2022-09-16T04:14:04.247Z,89.93
2022-09-16T04:16:31.116Z,89.77
2022-09-16T04:18:57.644Z,90.01
2022-09-16T04:21:24.595Z,90.52
2022-09-16T04:23:59.998Z,90.76
2022-09-16T04:26:28.034Z,91.01
2022-09-16T04:28:54.935Z,91.53
2022-09-16T04:31:21.538Z,91.01
2022-09-16T04:33:48.120Z,90.95
2022-09-16T04:36:19.463Z,90.85
2022-09-16T04:38:47.605Z,91.24
2022-09-16T04:41:23.230Z,91.59
2022-09-16T04:43:57.447Z,90.92
2022-09-16T04:46:26.068Z,91.64
2022-09-16T04:48:53.902Z,91.51
2022-09-16T04:51:22.476Z,90.71
2022-09-16T04:53:49.631Z,90.86
2022-09-16T04:56:22.016Z,90.77
2022-09-16T04:58:50.773Z,91.55
2022-09-16T05:01:20.041Z,91.33
2022-09-16T05:03:49.154Z,91.13
2022-09-16T05:06:23.676Z,91.34
2022-09-16T05:08:52.005Z,91.95
2022-09-16T05:11:27.583Z,91.17
2022-09-16T05:13:55.668Z,91.42
2022-09-16T05:16:23.239Z,90.86
2022-09-16T05:18:51.964Z,90.68
2022-09-16T05:21:20.759Z,90.98
2022-09-16T05:23:48.261Z,91.16
2022-09-16T05:26:17.977Z,91.02
2022-09-16T05:28:44.641Z,91.42
2022-09-16T05:31:16.665Z,91.16
2022-09-16T05:33:46.052Z,90.81
2022-09-16T05:36:15.253Z,91.11
2022-09-16T05:38:54.372Z,91.40
2022-09-16T05:41:29.231Z,90.48
2022-09-16T05:43:59.570Z,89.42
2022-09-16T05:46:26.566Z,89.14
2022-09-16T05:48:54.070Z,88.47
2022-09-16T05:51:22.276Z,89.02
2022-09-16T05:53:50.223Z,88.65
2022-09-16T05:56:24.492Z,88.60
2022-09-16T05:58:55.148Z,88.34
2022-09-16T06:01:24.402Z,87.79
2022-09-16T06:03:52.553Z,88.13
2022-09-16T06:06:27.214Z,87.78
2022-09-16T06:08:59.577Z,87.93
2022-09-16T06:11:27.785Z,87.29
2022-09-16T06:13:56.824Z,86.88
2022-09-16T06:16:28.031Z,87.02
2022-09-16T06:18:55.684Z,87.81
2022-09-16T06:21:23.084Z,88.05
2022-09-16T06:23:49.960Z,88.35
2022-09-16T06:26:19.358Z,88.43
2022-09-16T06:28:47.119Z,88.25
2022-09-16T06:31:24.747Z,88.13
2022-09-16T06:33:52.747Z,88.62
2022-09-16T06:36:21.797Z,88.13
2022-09-16T06:38:49.334Z,88.14
2022-09-16T06:41:17.473Z,87.46
2022-09-16T06:43:44.547Z,87.13
2022-09-16T06:46:17.198Z,87.08
2022-09-16T06:48:50.943Z,86.81
2022-09-16T06:51:24.186Z,86.18
2022-09-16T06:53:52.501Z,85.47
2022-09-16T06:56:21.267Z,85.58
2022-09-16T06:58:52.799Z,85.33
2022-09-16T07:01:21.378Z,84.92
2022-09-16T07:03:51.102Z,84.75
2022-09-16T07:06:20.136Z,84.16
2022-09-16T07:08:47.106Z,84.32
2022-09-16T07:11:16.183Z,84.19
2022-09-16T07:13:43.731Z,83.65
2022-09-16T07:16:13.958Z,83.90
2022-09-16T07:18:42.089Z,84.07
2022-09-16T07:21:17.672Z,81.91
2022-09-16T07:23:45.237Z,79.91
2022-09-16T07:26:16.195Z,80.12
2022-09-16T07:28:44.282Z,80.57
2022-09-16T07:31:13.409Z,79.70
2022-09-16T07:33:42.381Z,79.70
2022-09-16T07:36:10.411Z,79.23
2022-09-16T07:38:37.727Z,78.46
2022-09-16T07:41:12.826Z,77.58
2022-09-16T07:43:40.578Z,76.69
2022-09-16T07:46:08.799Z,76.67
2022-09-16T07:48:35.822Z,75.94
2022-09-16T07:51:07.065Z,75.52
2022-09-16T07:53:34.827Z,75.15
2022-09-16T07:56:07.499Z,75.12
2022-09-16T07:58:34.257Z,75.07
2022-09-16T08:01:04.761Z,74.80
2022-09-16T08:03:33.109Z,74.38
2022-09-16T08:06:06.589Z,74.30
2022-09-16T08:08:34.525Z,73.17
2022-09-16T08:11:02.131Z,73.25
2022-09-16T08:13:30.559Z,71.96
2022-09-16T08:16:02.298Z,72.12
2022-09-16T08:18:29.757Z,72.05
2022-09-16T08:20:56.669Z,71.04
2022-09-16T08:23:23.214Z,70.20
2022-09-16T08:25:58.347Z,69.09
2022-09-16T08:28:25.981Z,68.71
2022-09-16T08:30:53.981Z,68.85
2022-09-16T08:33:23.212Z,67.52
2022-09-16T08:36:17.132Z,65.19
2022-09-16T08:38:44.836Z,65.18
2022-09-16T08:41:39.565Z,65.57
2022-09-16T08:44:32.485Z,64.71
2022-09-16T08:47:06.224Z,65.08
2022-09-16T08:49:44.147Z,64.90
2022-09-16T08:52:43.465Z,64.50
2022-09-16T08:55:20.570Z,64.10
2022-09-16T08:58:26.290Z,63.50
2022-09-16T09:01:04.755Z,63.75
2022-09-16T09:03:40.411Z,62.78
2022-09-16T09:06:45.574Z,62.60
2022-09-16T09:09:43.638Z,62.62
2022-09-16T09:12:16.901Z,62.44
2022-09-16T09:14:54.457Z,62.54
2022-09-16T09:17:54.081Z,62.14
2022-09-16T09:20:35.969Z,62.04
2022-09-16T09:23:25.927Z,61.22
2022-09-16T09:25:59.126Z,59.95
2022-09-16T09:28:28.535Z,60.41
2022-09-16T09:31:10.052Z,59.80
2022-09-16T09:34:14.050Z,59.50
2022-09-16T09:37:18.435Z,58.17
2022-09-16T09:39:57.316Z,56.63
2022-09-16T09:42:36.189Z,56.95
2022-09-16T09:45:17.833Z,55.95
2022-09-16T09:48:15.485Z,55.82
2022-09-16T09:50:47.455Z,56.07
2022-09-16T09:53:36.041Z,54.12
2022-09-16T09:56:18.605Z,54.30
2022-09-16T09:58:52.412Z,55.04
2022-09-16T10:01:19.124Z,55.07
2022-09-16T10:03:51.194Z,54.28
2022-09-16T10:06:23.673Z,53.81
2022-09-16T10:08:52.182Z,52.87
2022-09-16T10:11:27.469Z,52.43
2022-09-16T10:14:00.016Z,52.15
2022-09-16T10:16:33.314Z,52.58
2022-09-16T10:19:16.959Z,53.32
2022-09-16T10:21:50.915Z,52.73
2022-09-16T10:24:32.928Z,51.56
2022-09-16T10:27:02.195Z,51.35
2022-09-16T10:29:29.406Z,49.41
2022-09-16T10:32:06.999Z,48.97
2022-09-16T10:34:42.224Z,48.88
2022-09-16T10:37:14.706Z,48.54
2022-09-16T10:39:45.773Z,48.56
2022-09-16T10:42:21.442Z,48.55
2022-09-16T10:44:51.237Z,49.01
2022-09-16T10:47:31.019Z,48.00
2022-09-16T10:50:04.999Z,48.99
2022-09-16T10:52:41.377Z,48.80
2022-09-16T10:55:20.286Z,48.59
2022-09-16T10:57:47.470Z,48.42
2022-09-16T11:00:45.585Z,47.23
2022-09-16T11:03:46.100Z,47.25
2022-09-16T11:06:15.293Z,47.64
2022-09-16T11:09:07.342Z,47.14
2022-09-16T11:12:06.467Z,46.13
2022-09-16T11:14:58.524Z,45.14
2022-09-16T11:17:56.099Z,45.95
2022-09-16T11:21:08.438Z,46.89
2022-09-16T11:23:47.280Z,47.69
2022-09-16T11:26:39.919Z,47.94
2022-09-16T11:29:27.562Z,48.74
2022-09-16T11:32:05.076Z,53.45
2022-09-16T11:35:02.766Z,54.77
2022-09-16T11:37:37.719Z,55.28
2022-09-16T11:40:19.547Z,55.20
2022-09-16T11:42:55.121Z,54.13
2022-09-16T11:45:46.172Z,54.39
2022-09-16T11:48:38.315Z,54.58
2022-09-16T11:51:24.167Z,53.64
2022-09-16T11:54:02.754Z,53.93
2022-09-16T11:56:47.594Z,50.84
2022-09-16T11:59:37.330Z,50.73
2022-09-16T12:02:22.227Z,50.91
2022-09-16T12:05:18.582Z,50.08
2022-09-16T12:07:53.139Z,49.77
2022-09-16T12:10:28.209Z,48.25
2022-09-16T12:13:13.764Z,48.56
2022-09-16T12:16:04.305Z,48.13
2022-09-16T12:19:00.200Z,48.72
2022-09-16T12:21:40.118Z,48.65
2022-09-16T12:24:27.093Z,47.78
2022-09-16T12:27:06.610Z,48.60
2022-09-16T12:29:56.447Z,49.74
2022-09-16T12:32:50.715Z,50.81
2022-09-16T12:35:21.308Z,51.78
2022-09-16T12:37:50.131Z,51.92
2022-09-16T12:40:42.101Z,51.40
2022-09-16T12:43:30.240Z,50.62
2022-09-16T12:46:18.318Z,52.27
2022-09-16T12:49:15.263Z,53.54
2022-09-16T12:52:04.776Z,54.98
2022-09-16T12:55:06.606Z,55.08
2022-09-16T12:58:11.274Z,58.93
2022-09-16T13:00:51.259Z,56.24
2022-09-16T13:03:22.747Z,54.40
2022-09-16T13:05:52.854Z,49.48
2022-09-16T13:08:23.757Z,47.25
2022-09-16T13:11:41.204Z,46.58
2022-09-16T13:13:57.229Z,44.97
2022-09-16T13:16:30.028Z,44.87
2022-09-16T13:19:27.415Z,44.42
2022-09-16T13:22:02.166Z,45.63
2022-09-16T13:24:38.850Z,47.02
2022-09-16T13:27:28.966Z,49.98
2022-09-16T13:30:13.839Z,53.43
2022-09-16T13:32:52.491Z,53.90
2022-09-16T13:35:19.189Z,49.99
2022-09-16T13:37:46.963Z,48.01
2022-09-16T13:40:31.625Z,50.05
2022-09-16T13:43:37.943Z,49.13
2022-09-16T13:46:24.776Z,49.76
2022-09-16T13:49:03.486Z,51.04
2022-09-16T13:51:36.026Z,50.88
2022-09-16T13:54:04.642Z,51.53
2022-09-16T13:57:13.872Z,52.71
2022-09-16T14:00:18.638Z,52.92
2022-09-16T14:02:56.543Z,53.77
2022-09-16T14:06:14.662Z,53.51
2022-09-16T14:08:54.294Z,53.51
2022-09-16T14:11:37.638Z,54.32
2022-09-16T14:14:46.340Z,53.99
2022-09-16T14:17:40.548Z,53.87
2022-09-16T14:20:21.495Z,53.53
2022-09-16T14:22:48.027Z,54.61
2022-09-16T14:25:30.985Z,55.68
2022-09-16T14:28:17.803Z,56.61
2022-09-16T14:30:54.816Z,56.54
2022-09-16T14:33:25.684Z,56.97
2022-09-16T14:35:54.253Z,57.06
2022-09-16T14:41:32.754Z,57.29
2022-09-16T14:44:16.549Z,57.32
2022-09-16T14:46:46.662Z,55.55
2022-09-16T14:49:15.282Z,55.54
2022-09-16T14:51:52.099Z,54.66
2022-09-16T14:54:20.180Z,54.58
2022-09-16T14:56:55.896Z,54.64
2022-09-16T14:59:35.475Z,54.81
2022-09-16T15:02:22.259Z,53.44
2022-09-16T15:05:02.729Z,51.32
2022-09-16T15:07:34.223Z,49.08
2022-09-16T15:10:30.268Z,49.76
2022-09-16T15:13:14.194Z,50.58
2022-09-16T15:15:48.942Z,50.56
2022-09-16T15:18:32.791Z,49.68
2022-09-16T15:21:07.935Z,50.92
2022-09-16T15:23:36.706Z,50.36
2022-09-16T15:26:22.928Z,50.34
2022-09-16T15:29:04.270Z,51.43
2022-09-16T15:31:44.995Z,51.76
2022-09-16T15:34:18.552Z,51.89
2022-09-16T15:36:47.314Z,52.34
2022-09-16T15:39:48.997Z,51.93
2022-09-16T15:42:20.685Z,52.17
2022-09-16T15:44:48.959Z,53.40
2022-09-16T15:48:04.343Z,54.43
2022-09-16T15:50:40.688Z,55.18
2022-09-16T15:53:15.713Z,55.73
2022-09-16T15:56:02.750Z,55.38
2022-09-16T15:58:31.917Z,55.48
2022-09-16T16:01:08.068Z,56.25
2022-09-16T16:03:53.323Z,56.66
2022-09-16T16:06:20.395Z,56.38
2022-09-16T16:08:54.763Z,56.47
2022-09-16T16:11:23.402Z,56.76
2022-09-16T16:13:53.032Z,56.60
2022-09-16T16:16:19.935Z,56.83
2022-09-16T16:18:46.548Z,57.12
2022-09-16T16:21:16.026Z,56.84
2022-09-16T16:23:43.011Z,57.20
2022-09-16T16:26:10.857Z,56.91
2022-09-16T16:28:38.878Z,56.79
2022-09-16T16:31:14.106Z,57.17
2022-09-16T16:33:44.645Z,57.04
2022-09-16T16:36:16.308Z,57.40
2022-09-16T16:38:43.994Z,57.36
2022-09-16T16:41:12.150Z,57.37
2022-09-16T16:43:40.516Z,57.24
2022-09-16T16:46:10.591Z,57.53
2022-09-16T16:48:39.090Z,57.58
2022-09-16T16:51:08.773Z,57.51
2022-09-16T16:53:35.567Z,56.64
2022-09-16T16:56:04.816Z,55.63
2022-09-16T16:58:32.349Z,54.32
2022-09-16T17:01:13.269Z,54.70
2022-09-16T17:03:41.557Z,54.66
2022-09-16T17:06:08.903Z,55.48
2022-09-16T17:08:35.655Z,55.89
2022-09-16T17:11:15.310Z,56.58
2022-09-16T17:13:44.198Z,56.89
2022-09-16T17:16:13.411Z,59.08
2022-09-16T17:18:41.583Z,63.83
2022-09-16T17:21:15.445Z,65.94
2022-09-16T17:23:42.297Z,66.24
2022-09-16T17:26:13.154Z,67.43
2022-09-16T17:28:41.135Z,67.56
2022-09-16T17:31:22.336Z,67.59
2022-09-16T17:33:48.822Z,66.81
2022-09-16T17:36:17.930Z,66.45
2022-09-16T17:38:44.337Z,66.65
2022-09-16T17:41:15.861Z,66.98
2022-09-16T17:43:44.129Z,66.36
2022-09-16T17:46:17.058Z,67.05
2022-09-16T17:48:44.383Z,67.31
2022-09-16T17:51:11.036Z,67.45
2022-09-16T17:53:38.907Z,67.94
2022-09-16T17:56:10.046Z,69.32
2022-09-16T17:58:39.093Z,70.32
2022-09-16T18:01:17.056Z,70.57
2022-09-16T18:03:45.490Z,71.94
2022-09-16T18:06:19.565Z,72.28
2022-09-16T18:08:47.022Z,73.30
2022-09-16T18:11:15.071Z,73.63
2022-09-16T18:13:42.484Z,74.24
2022-09-16T18:16:12.390Z,75.50
2022-09-16T18:18:41.653Z,76.78
2022-09-16T18:21:10.917Z,77.19
2022-09-16T18:23:38.257Z,78.32
2022-09-16T18:26:10.618Z,78.82
2022-09-16T18:29:05.134Z,79.88
2022-09-16T18:31:26.125Z,81.22
2022-09-16T18:33:54.458Z,81.45
2022-09-16T18:36:25.331Z,82.50
2022-09-16T18:38:57.214Z,83.33
2022-09-16T18:41:26.514Z,84.64
2022-09-16T18:43:56.041Z,84.67
2022-09-16T18:46:33.454Z,85.50
2022-09-16T18:48:59.917Z,86.67
2022-09-16T18:51:30.546Z,87.86
2022-09-16T18:54:00.762Z,88.25
2022-09-16T18:56:34.543Z,89.17
2022-09-16T18:59:23.602Z,89.32
2022-09-16T19:01:53.414Z,90.42
2022-09-16T19:04:22.911Z,91.19
2022-09-16T19:06:52.404Z,92.63
2022-09-16T19:09:21.524Z,92.69
2022-09-16T19:11:49.340Z,92.80
2022-09-16T19:14:16.333Z,92.89
2022-09-16T19:16:44.658Z,93.93
2022-09-16T19:19:13.877Z,94.08
2022-09-16T19:21:40.897Z,93.54
2022-09-16T19:24:14.686Z,93.87
2022-09-16T19:26:42.477Z,93.77
2022-09-16T19:29:10.137Z,93.07
2022-09-16T19:31:39.028Z,93.90
2022-09-16T19:34:06.024Z,93.43
2022-09-16T19:36:35.205Z,93.55
2022-09-16T19:39:04.264Z,93.72
2022-09-16T19:41:33.246Z,93.93
2022-09-16T19:44:01.900Z,94.70
2022-09-16T19:46:31.684Z,95.83
2022-09-16T19:48:58.785Z,95.70
2022-09-16T19:51:26.033Z,97.07
2022-09-16T19:53:54.422Z,96.87
2022-09-16T19:56:25.430Z,97.32
2022-09-16T19:58:53.209Z,96.61
2022-09-16T20:01:23.619Z,97.47
2022-09-16T20:03:50.989Z,97.92
2022-09-16T20:06:23.921Z,98.03
2022-09-16T20:09:01.022Z,98.28
2022-09-16T20:11:31.400Z,98.22
2022-09-16T20:14:11.830Z,98.25
2022-09-16T20:16:40.153Z,98.54
2022-09-16T20:19:13.298Z,98.70
2022-09-16T20:21:40.715Z,98.77
2022-09-16T20:24:13.367Z,98.57
2022-09-16T20:26:40.180Z,98.47
2022-09-16T20:29:06.882Z,98.69
2022-09-16T20:31:35.741Z,98.18
2022-09-16T20:34:03.708Z,98.33
2022-09-16T20:36:31.233Z,98.71
2022-09-16T20:39:00.602Z,99.15
2022-09-16T20:41:32.105Z,99.51
2022-09-16T20:43:59.376Z,99.59
2022-09-16T20:46:27.263Z,99.66
2022-09-16T20:48:54.894Z,99.84
2022-09-16T20:51:24.129Z,100.00
2022-09-16T20:54:03.760Z,100.00
2022-09-16T20:56:38.087Z,100.00
2022-09-16T20:59:08.386Z,100.00
2022-09-16T21:01:37.145Z,100.00
2022-09-16T21:04:06.925Z,100.00
2022-09-16T21:06:35.571Z,100.00
2022-09-16T21:09:05.250Z,100.00
2022-09-16T21:11:32.261Z,100.00
2022-09-16T21:14:06.582Z,100.00
2022-09-16T21:16:35.646Z,100.00
2022-09-16T21:19:05.614Z,100.00
2022-09-16T21:21:32.086Z,100.00
2022-09-16T21:24:01.290Z,100.00
2022-09-16T21:26:30.898Z,100.00
2022-09-16T21:29:04.729Z,100.00
2022-09-16T21:31:33.550Z,100.00
2022-09-16T21:34:01.708Z,100.00
2022-09-16T21:36:28.257Z,100.00
2022-09-16T21:38:55.547Z,100.00
2022-09-16T21:41:23.159Z,100.00
2022-09-16T21:43:55.528Z,100.00
2022-09-16T21:46:25.850Z,100.00
2022-09-16T21:48:56.356Z,100.00
2022-09-16T21:51:22.964Z,100.00
2022-09-16T21:53:49.599Z,100.00
2022-09-16T21:56:18.808Z,100.00
2022-09-16T21:58:46.561Z,100.00
2022-09-16T22:01:19.077Z,100.00
2022-09-16T22:03:54.119Z,100.00
2022-09-16T22:06:27.593Z,100.00
2022-09-16T22:09:19.202Z,100.00
2022-09-16T22:11:46.223Z,100.00
2022-09-16T22:14:12.644Z,100.00
2022-09-16T22:16:40.271Z,100.00
2022-09-16T22:19:16.194Z,100.00
2022-09-16T22:21:46.034Z,100.00
2022-09-16T22:24:12.745Z,100.00
2022-09-16T22:26:40.201Z,100.00
2022-09-16T22:29:09.143Z,100.00
2022-09-16T22:31:38.121Z,100.00
2022-09-16T22:34:05.370Z,100.00
2022-09-16T22:36:33.879Z,100.00
2022-09-16T22:39:07.338Z,100.00
2022-09-16T22:41:34.474Z,100.00
2022-09-16T22:44:01.004Z,100.00
2022-09-16T22:46:31.905Z,100.00
2022-09-16T22:48:59.481Z,100.00
2022-09-16T22:51:27.142Z,100.00
2022-09-16T22:53:54.643Z,100.00
2022-09-16T22:56:29.230Z,100.00
2022-09-16T22:58:56.815Z,100.00
2022-09-16T23:01:37.244Z,100.00
2022-09-16T23:04:05.458Z,100.00
2022-09-16T23:06:33.623Z,100.00
2022-09-16T23:09:00.900Z,100.00
2022-09-16T23:11:31.045Z,100.00
2022-09-16T23:13:58.075Z,100.00
2022-09-16T23:16:27.269Z,100.00
2022-09-16T23:18:55.767Z,100.00
2022-09-16T23:21:23.638Z,100.00
2022-09-16T23:23:56.184Z,100.00
2022-09-16T23:26:25.337Z,100.00
2022-09-16T23:28:54.605Z,100.00
2022-09-16T23:31:23.183Z,100.00
2022-09-16T23:33:49.727Z,100.00
2022-09-16T23:36:17.569Z,100.00
2022-09-16T23:38:45.855Z,100.00
2022-09-16T23:41:15.313Z,100.00
2022-09-16T23:43:43.446Z,100.00
2022-09-16T23:46:12.009Z,100.00
2022-09-16T23:48:39.309Z,100.00
2022-09-16T23:51:08.324Z,100.00
2022-09-16T23:53:35.928Z,100.00
2022-09-16T23:56:07.505Z,100.00
2022-09-16T23:58:35.101Z,100.00
